createdAt,value
2018-03-22T00:01:00.790Z,102113.98
2018-03-22T00:03:30.127Z,102108.52
2018-03-22T00:05:59.185Z,102109.44
2018-03-22T00:08:28.276Z,102109.44
2018-03-22T00:10:57.326Z,102103.59
2018-03-22T00:13:26.381Z,102105.38
2018-03-22T00:15:55.462Z,102099.48
2018-03-22T00:18:24.522Z,102101.33
2018-03-22T00:20:53.589Z,102104.47
2018-03-22T00:23:22.989Z,102098.95
2018-03-22T00:25:52.090Z,102101.27
2018-03-22T00:28:21.674Z,102086.88
2018-03-22T00:30:50.753Z,102090.39
2018-03-22T00:33:19.838Z,102082.34
2018-03-22T00:35:48.861Z,102075.58
2018-03-22T00:38:18.334Z,102075.53
2018-03-22T00:40:47.385Z,102067.03
2018-03-22T00:43:16.441Z,102064.81
2018-03-22T00:45:45.920Z,102057.08
2018-03-22T00:48:14.980Z,102053.52
2018-03-22T00:50:44.041Z,102058.00
2018-03-22T00:53:13.925Z,102040.91
2018-03-22T00:55:42.993Z,102033.28
2018-03-22T00:58:12.103Z,102023.76
2018-03-22T01:00:41.215Z,102015.59
2018-03-22T01:03:10.288Z,102011.11
2018-03-22T01:05:39.358Z,102007.05
2018-03-22T01:08:08.726Z,102006.11
2018-03-22T01:10:37.784Z,102001.69
2018-03-22T01:13:06.842Z,101991.69
2018-03-22T01:15:36.273Z,101995.74
2018-03-22T01:18:05.325Z,101992.59
2018-03-22T01:20:34.395Z,101985.83
2018-03-22T01:23:03.471Z,101976.79
2018-03-22T01:25:32.530Z,101969.11
2018-03-22T01:28:07.261Z,101961.92
2018-03-22T01:30:37.505Z,101961.48
2018-03-22T01:33:06.595Z,101957.02
2018-03-22T01:35:35.671Z,101957.42
2018-03-22T01:38:04.731Z,101955.59
2018-03-22T01:40:33.803Z,101951.97
2018-03-22T01:43:03.311Z,101956.08
2018-03-22T01:45:32.402Z,101956.53
2018-03-22T01:48:01.458Z,101951.53
2018-03-22T01:50:30.834Z,101945.70
2018-03-22T01:53:11.233Z,101937.65
2018-03-22T01:55:41.010Z,101930.08
2018-03-22T01:58:10.080Z,101923.64
2018-03-22T02:00:39.133Z,101915.58
2018-03-22T02:03:08.257Z,101906.50
2018-03-22T02:05:37.313Z,101900.63
2018-03-22T02:08:06.361Z,101897.46
2018-03-22T02:10:35.838Z,101901.50
2018-03-22T02:13:04.893Z,101895.22
2018-03-22T02:15:33.964Z,101895.22
2018-03-22T02:18:03.046Z,101887.48
2018-03-22T02:20:32.120Z,101886.63
2018-03-22T02:23:01.195Z,101887.56
2018-03-22T02:25:30.271Z,101880.86
2018-03-22T02:27:59.337Z,101869.53
2018-03-22T02:30:28.394Z,101869.61
2018-03-22T02:32:57.466Z,101865.98
2018-03-22T02:35:26.594Z,101871.45
2018-03-22T02:37:55.655Z,101867.33
2018-03-22T02:40:24.994Z,101856.14
2018-03-22T02:42:54.049Z,101850.63
2018-03-22T02:45:23.107Z,101846.63
2018-03-22T02:47:52.666Z,101831.38
2018-03-22T02:50:21.780Z,101825.47
2018-03-22T02:52:50.840Z,101814.22
2018-03-22T02:55:20.259Z,101815.58
2018-03-22T02:57:49.329Z,101816.87
2018-03-22T03:00:18.390Z,101814.22
2018-03-22T03:02:47.854Z,101819.20
2018-03-22T03:05:16.964Z,101815.58
2018-03-22T03:07:46.185Z,101812.44
2018-03-22T03:10:15.553Z,101805.21
2018-03-22T03:12:44.607Z,101800.27
2018-03-22T03:15:13.673Z,101803.41
2018-03-22T03:17:43.039Z,101804.78
2018-03-22T03:20:12.101Z,101803.00
2018-03-22T03:22:41.175Z,101803.43
2018-03-22T03:25:10.421Z,101794.94
2018-03-22T03:27:39.484Z,101795.80
2018-03-22T03:30:08.542Z,101785.96
2018-03-22T03:32:37.619Z,101786.91
2018-03-22T03:35:06.685Z,101782.36
2018-03-22T03:37:35.749Z,101780.55
2018-03-22T03:40:04.932Z,101786.39
2018-03-22T03:42:33.925Z,101780.02
2018-03-22T03:45:02.985Z,101776.01
2018-03-22T03:47:32.309Z,101772.44
2018-03-22T03:50:01.401Z,101777.36
2018-03-22T03:52:30.529Z,101772.47
2018-03-22T03:54:59.978Z,101765.68
2018-03-22T03:57:29.034Z,101770.11
2018-03-22T03:59:58.090Z,101753.94
2018-03-22T04:02:27.467Z,101752.53
2018-03-22T04:04:56.523Z,101743.98
2018-03-22T04:07:25.583Z,101735.94
2018-03-22T04:09:54.589Z,101732.03
2018-03-22T04:12:23.666Z,101732.20
2018-03-22T04:14:52.729Z,101714.36
2018-03-22T04:17:22.139Z,101717.91
2018-03-22T04:19:51.197Z,101716.14
2018-03-22T04:22:20.315Z,101714.98
2018-03-22T04:24:49.764Z,101720.45
2018-03-22T04:27:19.007Z,101720.47
2018-03-22T04:29:48.068Z,101718.81
2018-03-22T04:32:17.531Z,101714.45
2018-03-22T04:34:46.585Z,101709.55
2018-03-22T04:37:15.655Z,101705.98
2018-03-22T04:39:44.739Z,101704.39
2018-03-22T04:42:13.797Z,101708.98
2018-03-22T04:44:42.855Z,101703.63
2018-03-22T04:47:12.308Z,101697.75
2018-03-22T04:49:41.374Z,101693.38
2018-03-22T04:52:10.434Z,101690.75
2018-03-22T04:54:39.530Z,101691.75
2018-03-22T04:57:08.604Z,101685.97
2018-03-22T04:59:37.662Z,101691.37
2018-03-22T05:02:06.744Z,101693.23
2018-03-22T05:04:35.810Z,101683.03
2018-03-22T05:07:04.878Z,101681.63
2018-03-22T05:09:34.314Z,101673.08
2018-03-22T05:12:03.375Z,101670.45
2018-03-22T05:14:32.429Z,101663.83
2018-03-22T05:17:01.791Z,101662.05
2018-03-22T05:19:30.866Z,101667.44
2018-03-22T05:21:59.926Z,101654.35
2018-03-22T05:24:29.320Z,101657.56
2018-03-22T05:26:58.386Z,101653.14
2018-03-22T05:29:27.453Z,101655.78
2018-03-22T05:31:56.932Z,101644.11
2018-03-22T05:34:26.035Z,101647.87
2018-03-22T05:36:57.092Z,101643.81
2018-03-22T05:39:25.956Z,101639.95
2018-03-22T05:41:55.058Z,101643.41
2018-03-22T05:44:24.141Z,101637.08
2018-03-22T05:46:53.201Z,101631.73
2018-03-22T05:49:22.262Z,101636.20
2018-03-22T05:51:51.346Z,101629.89
2018-03-22T05:54:20.409Z,101621.90
2018-03-22T05:56:49.483Z,101626.81
2018-03-22T05:59:18.938Z,101620.14
2018-03-22T06:01:47.998Z,101611.60
2018-03-22T06:04:17.056Z,101610.31
2018-03-22T06:06:46.531Z,101615.66
2018-03-22T06:09:15.584Z,101613.88
2018-03-22T06:11:44.642Z,101621.92
2018-03-22T06:14:14.429Z,101615.36
2018-03-22T06:16:43.486Z,101611.28
2018-03-22T06:19:12.558Z,101597.85
2018-03-22T06:21:41.930Z,101601.47
2018-03-22T06:24:11.009Z,101595.20
2018-03-22T06:26:40.076Z,101596.16
2018-03-22T06:29:09.165Z,101586.80
2018-03-22T06:31:38.135Z,101590.94
2018-03-22T06:34:07.193Z,101588.23
2018-03-22T06:36:36.690Z,101579.70
2018-03-22T06:39:05.276Z,101576.51
2018-03-22T06:41:34.351Z,101576.08
2018-03-22T06:44:03.790Z,101574.35
2018-03-22T06:46:32.847Z,101575.73
2018-03-22T06:49:01.911Z,101575.41
2018-03-22T06:51:31.165Z,101568.30
2018-03-22T06:54:00.235Z,101571.87
2018-03-22T06:56:36.059Z,101568.73
2018-03-22T06:59:05.122Z,101575.08
2018-03-22T07:01:34.178Z,101569.25
2018-03-22T07:04:03.503Z,101563.03
2018-03-22T07:06:32.562Z,101560.83
2018-03-22T07:09:01.626Z,101564.89
2018-03-22T07:11:31.147Z,101560.84
2018-03-22T07:14:00.201Z,101567.16
2018-03-22T07:16:29.276Z,101566.73
2018-03-22T07:18:58.392Z,101561.74
2018-03-22T07:21:27.474Z,101573.11
2018-03-22T07:23:56.578Z,101572.19
2018-03-22T07:26:26.072Z,101569.06
2018-03-22T07:28:55.163Z,101570.44
2018-03-22T07:31:24.227Z,101562.25
2018-03-22T07:33:53.308Z,101559.63
2018-03-22T07:36:22.394Z,101564.58
2018-03-22T07:38:51.469Z,101566.30
2018-03-22T07:41:20.545Z,101562.73
2018-03-22T07:43:49.413Z,101565.80
2018-03-22T07:46:18.516Z,101567.28
2018-03-22T07:48:47.599Z,101568.95
2018-03-22T07:51:16.660Z,101559.63
2018-03-22T07:53:45.636Z,101571.35
2018-03-22T07:56:14.720Z,101570.49
2018-03-22T07:58:43.789Z,101571.78
2018-03-22T08:01:12.810Z,101565.38
2018-03-22T08:03:43.914Z,101559.84
2018-03-22T08:06:13.145Z,101570.22
2018-03-22T08:08:44.708Z,101559.80
2018-03-22T08:11:13.897Z,101558.22
2018-03-22T08:13:42.963Z,101557.55
2018-03-22T08:16:11.882Z,101556.48
2018-03-22T08:18:40.946Z,101548.78
2018-03-22T08:21:10.058Z,101557.81
2018-03-22T08:23:39.143Z,101553.21
2018-03-22T08:26:08.213Z,101558.42
2018-03-22T08:28:37.287Z,101551.84
2018-03-22T08:31:06.361Z,101553.48
2018-03-22T08:33:35.467Z,101553.42
2018-03-22T08:36:04.523Z,101552.42
2018-03-22T08:38:33.594Z,101552.02
2018-03-22T08:41:02.656Z,101557.12
2018-03-22T08:43:31.714Z,101547.67
2018-03-22T08:46:00.811Z,101550.38
2018-03-22T08:48:29.878Z,101549.44
2018-03-22T08:50:58.962Z,101548.22
2018-03-22T08:53:28.660Z,101552.03
2018-03-22T08:55:57.714Z,101543.42
2018-03-22T08:58:26.789Z,101547.98
2018-03-22T09:00:56.234Z,101552.58
2018-03-22T09:03:25.509Z,101546.26
2018-03-22T09:05:54.606Z,101537.31
2018-03-22T09:08:23.778Z,101542.05
2018-03-22T09:10:52.883Z,101545.05
2018-03-22T09:13:26.515Z,101533.99
2018-03-22T09:15:56.215Z,101542.66
2018-03-22T09:18:25.731Z,101535.32
2018-03-22T09:20:54.795Z,101549.75
2018-03-22T09:23:23.861Z,101543.83
2018-03-22T09:25:53.061Z,101538.08
2018-03-22T09:28:22.746Z,101541.70
2018-03-22T09:30:52.069Z,101549.80
2018-03-22T09:33:21.616Z,101544.75
2018-03-22T09:35:50.671Z,101545.97
2018-03-22T09:38:19.748Z,101545.09
2018-03-22T09:40:50.131Z,101552.27
2018-03-22T09:43:19.186Z,101544.09
2018-03-22T09:45:48.264Z,101551.39
2018-03-22T09:48:17.633Z,101553.80
2018-03-22T09:50:46.682Z,101557.30
2018-03-22T09:53:15.758Z,101548.91
2018-03-22T09:55:44.990Z,101538.61
2018-03-22T09:58:14.062Z,101533.62
2018-03-22T10:00:43.130Z,101530.72
2018-03-22T10:03:12.226Z,101527.02
2018-03-22T10:05:41.301Z,101525.42
2018-03-22T10:08:10.370Z,101520.03
2018-03-22T10:10:39.505Z,101523.23
2018-03-22T10:13:08.497Z,101520.11
2018-03-22T10:15:37.583Z,101512.00
2018-03-22T10:18:06.681Z,101522.40
2018-03-22T10:20:35.761Z,101517.62
2018-03-22T10:23:04.842Z,101525.23
2018-03-22T10:25:33.943Z,101516.72
2018-03-22T10:28:03.003Z,101519.91
2018-03-22T10:30:32.179Z,101519.67
2018-03-22T10:33:01.551Z,101519.91
2018-03-22T10:35:30.870Z,101524.39
2018-03-22T10:37:59.946Z,101522.75
2018-03-22T10:40:29.097Z,101514.00
2018-03-22T10:42:58.162Z,101509.22
2018-03-22T10:45:27.226Z,101515.78
2018-03-22T10:47:56.305Z,101518.42
2018-03-22T10:50:25.370Z,101506.75
2018-03-22T10:52:54.430Z,101503.91
2018-03-22T10:55:23.544Z,101505.75
2018-03-22T10:57:52.616Z,101511.04
2018-03-22T11:00:27.493Z,101515.78
2018-03-22T11:02:57.154Z,101507.33
2018-03-22T11:05:26.221Z,101504.28
2018-03-22T11:07:55.616Z,101507.48
2018-03-22T11:10:24.699Z,101503.23
2018-03-22T11:12:53.773Z,101503.58
2018-03-22T11:15:23.478Z,101510.12
2018-03-22T11:17:52.561Z,101501.94
2018-03-22T11:20:21.704Z,101498.94
2018-03-22T11:22:50.783Z,101497.10
2018-03-22T11:25:19.841Z,101493.34
2018-03-22T11:27:48.903Z,101493.63
2018-03-22T11:30:18.028Z,101486.78
2018-03-22T11:32:47.102Z,101490.27
2018-03-22T11:35:16.163Z,101481.46
2018-03-22T11:37:45.261Z,101471.77
2018-03-22T11:40:13.844Z,101478.80
2018-03-22T11:42:42.931Z,101477.80
2018-03-22T11:45:12.019Z,101476.27
2018-03-22T11:47:41.158Z,101472.11
2018-03-22T11:50:10.261Z,101469.38
2018-03-22T11:52:39.619Z,101463.00
2018-03-22T11:55:08.708Z,101462.37
2018-03-22T11:57:37.734Z,101466.97
2018-03-22T12:00:06.858Z,101469.41
2018-03-22T12:02:35.939Z,101470.68
2018-03-22T12:05:05.025Z,101467.55
2018-03-22T12:07:34.147Z,101475.23
2018-03-22T12:10:03.246Z,101480.84
2018-03-22T12:12:32.396Z,101478.22
2018-03-22T12:15:02.807Z,101474.63
2018-03-22T12:17:31.881Z,101476.45
2018-03-22T12:20:01.541Z,101478.42
2018-03-22T12:22:30.662Z,101474.70
2018-03-22T12:24:59.753Z,101467.31
2018-03-22T12:27:29.245Z,101467.40
2018-03-22T12:29:58.392Z,101464.47
2018-03-22T12:32:27.587Z,101461.18
2018-03-22T12:34:56.841Z,101461.91
2018-03-22T12:37:26.146Z,101461.90
2018-03-22T12:39:55.208Z,101449.88
2018-03-22T12:42:24.316Z,101457.08
2018-03-22T12:44:53.394Z,101454.05
2018-03-22T12:49:50.587Z,101445.39
2018-03-22T12:52:19.658Z,101439.61
2018-03-22T12:54:49.911Z,101441.89
2018-03-22T12:57:19.043Z,101443.23
2018-03-22T12:59:48.118Z,101437.70
2018-03-22T13:02:18.407Z,101433.37
2018-03-22T13:04:47.561Z,101435.58
2018-03-22T13:07:16.650Z,101429.17
2018-03-22T13:09:45.618Z,101432.88
2018-03-22T13:12:14.963Z,101436.41
2018-03-22T13:14:44.029Z,101435.34
2018-03-22T13:17:13.106Z,101437.35
2018-03-22T13:19:42.594Z,101433.91
2018-03-22T13:22:11.654Z,101432.49
2018-03-22T13:24:40.786Z,101437.97
2018-03-22T13:27:10.281Z,101435.27
2018-03-22T13:29:39.342Z,101430.59
2018-03-22T13:32:08.459Z,101440.47
2018-03-22T13:34:37.549Z,101437.48
2018-03-22T13:37:06.736Z,101439.33
2018-03-22T13:39:35.790Z,101437.45
2018-03-22T13:42:05.464Z,101433.98
2018-03-22T13:44:34.640Z,101430.92
2018-03-22T13:47:03.727Z,101437.35
2018-03-22T13:49:33.078Z,101438.92
2018-03-22T13:52:02.286Z,101435.24
2018-03-22T13:54:31.379Z,101428.83
2018-03-22T13:57:00.879Z,101424.47
2018-03-22T13:59:29.987Z,101425.41
2018-03-22T14:01:59.288Z,101424.11
2018-03-22T14:04:28.811Z,101425.89
2018-03-22T14:06:57.879Z,101421.62
2018-03-22T14:09:28.136Z,101425.97
2018-03-22T14:11:57.226Z,101422.41
2018-03-22T14:14:26.303Z,101418.41
2018-03-22T14:16:55.365Z,101412.52
2018-03-22T14:19:24.495Z,101414.80
2018-03-22T14:21:53.550Z,101410.66
2018-03-22T14:24:22.646Z,101411.23
2018-03-22T14:26:51.815Z,101409.80
2018-03-22T14:29:23.486Z,101400.66
2018-03-22T14:32:03.225Z,101409.98
2018-03-22T14:34:40.838Z,101407.09
2018-03-22T14:37:10.215Z,101407.24
2018-03-22T14:39:39.699Z,101407.03
2018-03-22T14:42:08.804Z,101414.84
2018-03-22T14:44:37.906Z,101400.09
2018-03-22T14:47:06.991Z,101400.27
2018-03-22T14:49:36.047Z,101395.02
2018-03-22T14:52:05.138Z,101391.73
2018-03-22T14:54:34.253Z,101383.22
2018-03-22T14:57:03.312Z,101378.38
2018-03-22T14:59:32.413Z,101374.70
2018-03-22T15:02:01.546Z,101376.48
2018-03-22T15:04:30.630Z,101378.73
2018-03-22T15:06:59.722Z,101377.39
2018-03-22T15:09:28.808Z,101370.44
2018-03-22T15:11:57.935Z,101374.68
2018-03-22T15:14:27.025Z,101370.39
2018-03-22T15:16:56.159Z,101372.97
2018-03-22T15:19:25.416Z,101373.71
2018-03-22T15:21:54.752Z,101365.00
2018-03-22T15:24:23.867Z,101364.63
2018-03-22T15:26:52.928Z,101367.25
2018-03-22T15:29:22.205Z,101365.19
2018-03-22T15:31:51.302Z,101365.41
2018-03-22T15:34:20.415Z,101358.22
2018-03-22T15:36:49.518Z,101354.23
2018-03-22T15:39:18.420Z,101364.20
2018-03-22T15:41:47.490Z,101360.89
2018-03-22T15:44:16.425Z,101354.84
2018-03-22T15:46:45.504Z,101352.77
2018-03-22T15:49:15.004Z,101349.07
2018-03-22T15:51:44.091Z,101350.08
2018-03-22T15:54:13.159Z,101353.34
2018-03-22T15:56:42.847Z,101357.88
2018-03-22T15:59:11.945Z,101355.63
2018-03-22T16:01:41.054Z,101356.53
2018-03-22T16:04:10.145Z,101350.51
2018-03-22T16:06:40.389Z,101356.81
2018-03-22T16:09:09.463Z,101358.30
2018-03-22T16:11:38.538Z,101356.26
2018-03-22T16:14:07.637Z,101353.67
2018-03-22T16:16:36.927Z,101344.03
2018-03-22T16:19:06.006Z,101346.17
2018-03-22T16:21:35.116Z,101344.08
2018-03-22T16:24:04.222Z,101343.73
2018-03-22T16:26:33.388Z,101339.81
2018-03-22T16:29:02.763Z,101346.17
2018-03-22T16:31:31.834Z,101342.09
2018-03-22T16:34:00.908Z,101347.34
2018-03-22T16:36:30.301Z,101349.16
2018-03-22T16:38:59.370Z,101349.26
2018-03-22T16:41:28.447Z,101341.80
2018-03-22T16:43:57.966Z,101339.55
2018-03-22T16:46:27.081Z,101346.97
2018-03-22T16:48:56.142Z,101345.26
2018-03-22T16:51:25.241Z,101350.15
2018-03-22T16:53:54.311Z,101354.39
2018-03-22T16:56:23.418Z,101340.77
2018-03-22T16:58:52.526Z,101337.23
2018-03-22T17:01:21.450Z,101336.34
2018-03-22T17:03:50.510Z,101337.30
2018-03-22T17:06:19.604Z,101328.91
2018-03-22T17:08:48.691Z,101330.29
2018-03-22T17:11:17.750Z,101333.18
2018-03-22T17:13:46.841Z,101327.22
2018-03-22T17:16:15.911Z,101328.51
2018-03-22T17:18:44.983Z,101327.65
2018-03-22T17:21:14.075Z,101323.66
2018-03-22T17:23:43.143Z,101321.93
2018-03-22T17:26:12.219Z,101315.05
2018-03-22T17:28:41.311Z,101321.10
2018-03-22T17:31:10.367Z,101318.39
2018-03-22T17:33:39.417Z,101318.33
2018-03-22T17:36:08.658Z,101321.01
2018-03-22T17:38:37.732Z,101321.19
2018-03-22T17:41:06.968Z,101327.67
2018-03-22T17:43:36.323Z,101331.95
2018-03-22T17:46:05.567Z,101329.83
2018-03-22T17:48:34.455Z,101327.24
2018-03-22T17:51:03.537Z,101329.27
2018-03-22T17:53:32.605Z,101325.42
2018-03-22T17:56:01.746Z,101321.92
2018-03-22T17:58:30.831Z,101325.70
2018-03-22T18:00:59.923Z,101330.33
2018-03-22T18:03:29.001Z,101328.15
2018-03-22T18:05:58.370Z,101326.09
2018-03-22T18:08:27.486Z,101331.98
2018-03-22T18:10:56.713Z,101321.69
2018-03-22T18:13:25.615Z,101319.60
2018-03-22T18:15:54.691Z,101317.91
2018-03-22T18:18:24.210Z,101317.48
2018-03-22T18:20:53.578Z,101318.48
2018-03-22T18:23:23.383Z,101318.14
2018-03-22T18:25:52.446Z,101310.09
2018-03-22T18:28:21.550Z,101306.10
2018-03-22T18:30:50.611Z,101314.22
2018-03-22T18:33:19.671Z,101309.73
2018-03-22T18:35:48.767Z,101306.62
2018-03-22T18:38:17.818Z,101307.12
2018-03-22T18:40:47.022Z,101303.15
2018-03-22T18:43:16.112Z,101304.13
2018-03-22T18:45:45.191Z,101307.75
2018-03-22T18:48:14.242Z,101305.08
2018-03-22T18:50:43.669Z,101305.08
2018-03-22T18:53:12.730Z,101302.38
2018-03-22T18:55:41.807Z,101304.63
2018-03-22T18:58:11.375Z,101302.01
2018-03-22T19:00:40.463Z,101303.41
2018-03-22T19:03:09.549Z,101296.23
2018-03-22T19:05:38.948Z,101294.45
2018-03-22T19:08:08.023Z,101289.59
2018-03-22T19:10:37.087Z,101284.55
2018-03-22T19:13:06.169Z,101281.48
2018-03-22T19:15:35.225Z,101282.49
2018-03-22T19:18:04.295Z,101277.95
2018-03-22T19:20:33.370Z,101277.95
2018-03-22T19:27:58.398Z,101269.62
2018-03-22T19:30:27.457Z,101267.72
2018-03-22T19:32:56.332Z,101266.34
2018-03-22T19:35:25.413Z,101264.16
2018-03-22T19:37:54.482Z,101264.59
2018-03-22T19:40:23.574Z,101259.18
2018-03-22T19:42:52.792Z,101258.32
2018-03-22T19:45:21.889Z,101259.18
2018-03-22T19:47:50.958Z,101263.78
2018-03-22T19:50:20.045Z,101262.47
2018-03-22T19:52:49.132Z,101260.22
2018-03-22T19:55:18.206Z,101260.66
2018-03-22T19:57:47.307Z,101258.81
2018-03-22T20:00:16.395Z,101252.91
2018-03-22T20:02:45.448Z,101254.33
2018-03-22T20:05:14.529Z,101250.64
2018-03-22T20:07:43.590Z,101246.59
2018-03-22T20:10:12.652Z,101237.98
2018-03-22T20:12:41.725Z,101236.64
2018-03-22T20:15:10.785Z,101237.62
2018-03-22T20:17:39.855Z,101229.94
2018-03-22T20:20:08.942Z,101233.08
2018-03-22T20:22:37.811Z,101234.42
2018-03-22T20:25:06.977Z,101233.20
2018-03-22T20:27:36.064Z,101233.08
2018-03-22T20:30:04.874Z,101236.76
2018-03-22T20:32:33.927Z,101234.48
2018-03-22T20:35:03.002Z,101232.64
2018-03-22T20:37:31.890Z,101235.29
2018-03-22T20:40:00.965Z,101228.44
2018-03-22T20:42:30.278Z,101229.02
2018-03-22T20:44:59.337Z,101219.53
2018-03-22T20:47:28.303Z,101217.78
2018-03-22T20:49:57.227Z,101223.13
2018-03-22T20:52:26.297Z,101214.98
2018-03-22T20:54:55.370Z,101217.14
2018-03-22T20:57:24.769Z,101220.39
2018-03-22T20:59:53.835Z,101216.70
2018-03-22T21:02:22.711Z,101220.83
2018-03-22T21:04:51.802Z,101220.77
2018-03-22T21:07:20.871Z,101217.56
2018-03-22T21:09:49.930Z,101219.14
2018-03-22T21:12:19.028Z,101213.52
2018-03-22T21:14:48.116Z,101211.06
2018-03-22T21:17:17.370Z,101213.55
2018-03-22T21:19:46.450Z,101208.42
2018-03-22T21:22:15.606Z,101209.19
2018-03-22T21:24:44.663Z,101205.87
2018-03-22T21:27:13.998Z,101210.33
2018-03-22T21:29:43.054Z,101209.74
2018-03-22T21:32:12.529Z,101205.53
2018-03-22T21:34:42.671Z,101204.55
2018-03-22T21:37:12.732Z,101196.28
2018-03-22T21:39:42.332Z,101200.33
2018-03-22T21:42:11.381Z,101192.56
2018-03-22T21:44:40.578Z,101190.59
2018-03-22T21:47:21.150Z,101183.83
2018-03-22T21:49:50.210Z,101174.77
2018-03-22T21:52:31.077Z,101171.50
2018-03-22T21:55:00.072Z,101166.06
2018-03-22T21:57:29.135Z,101166.86
2018-03-22T21:59:58.735Z,101163.23
2018-03-22T22:02:27.797Z,101156.44
2018-03-22T22:04:56.734Z,101155.89
2018-03-22T22:07:25.966Z,101152.75
2018-03-22T22:12:30.311Z,101146.82
2018-03-22T22:14:59.370Z,101145.34
2018-03-22T22:17:28.462Z,101143.56
2018-03-22T22:19:57.539Z,101144.38
2018-03-22T22:22:26.594Z,101137.49
2018-03-22T22:24:55.645Z,101130.89
2018-03-22T22:27:24.750Z,101128.09
2018-03-22T22:29:53.804Z,101127.17
2018-03-22T22:32:22.897Z,101122.62
2018-03-22T22:34:52.041Z,101114.94
2018-03-22T22:37:21.105Z,101112.66
2018-03-22T22:39:50.160Z,101111.28
2018-03-22T22:42:19.254Z,101105.44
2018-03-22T22:44:48.322Z,101095.91
2018-03-22T22:47:17.384Z,101097.59
2018-03-22T22:49:46.752Z,101093.56
2018-03-22T22:52:15.839Z,101086.34
2018-03-22T22:54:44.898Z,101088.98
2018-03-22T22:57:13.973Z,101088.06
2018-03-22T22:59:43.095Z,101079.09
2018-03-22T23:02:12.146Z,101076.39
2018-03-22T23:04:41.511Z,101076.88
2018-03-22T23:07:10.586Z,101071.84
2018-03-22T23:09:44.999Z,101069.98
2018-03-22T23:14:42.067Z,101065.50
2018-03-22T23:17:11.152Z,101062.80
2018-03-22T23:19:40.226Z,101062.73
2018-03-22T23:22:09.287Z,101065.50
2018-03-22T23:24:38.746Z,101061.88
2018-03-22T23:27:07.802Z,101058.73
2018-03-22T23:29:36.874Z,101058.25
2018-03-22T23:32:06.350Z,101055.94
2018-03-22T23:34:35.422Z,101052.80
2018-03-22T23:37:04.485Z,101046.94
2018-03-22T23:39:33.927Z,101044.72
2018-03-22T23:42:02.801Z,101039.81
2018-03-22T23:44:31.875Z,101032.68
2018-03-22T23:47:00.965Z,101035.32
2018-03-22T23:49:29.838Z,101032.62
2018-03-22T23:51:59.150Z,101030.34
2018-03-22T23:54:28.291Z,101027.11
2018-03-22T23:56:57.344Z,101018.17
2018-03-22T23:59:26.303Z,101017.31
